Terminal Aerodrome Forecast
Issued by NWS

Home | Current Version | Previous Version | Graphics & Text | Print | Product List | Glossary On
Versions: 1 2 3 4 5 6 7 8 9 10 11 12 13 14 15 16 17 18
000
FTUS43 KOAX 231136
TAFCDR
TAF
KCDR 231136Z 2312/2412 17008KT P6SM SCT150
     FM231900 04006KT P6SM SCT120
     FM240000 02020G28KT P6SM VCSH OVC030=

USA.gov is the U.S. government's official web portal to all federal, state and local government web resources and services.